Time;durP1;ratioP1;P1;durP2;ratioP2;P2;SDS_P1;SDS_P2;PMS_P1;PMS_P2;Temp;Humidity;BMP_temperature;BMP_pressure;BME280_temperature;BME280_humidity;BME280_pressure;Samples;Min_cycle;Max_cycle;Signal;HPM_P1;HPM_P2
2023/01/13 00:01:13;;;;;;;19.35;6.95;;;;;;;;;;5058302;28;20122;-72
2023/01/13 00:03:39;;;;;;;34.28;8.80;;;;;;;;;;5059498;28;20464;-73
2023/01/13 00:06:06;;;;;;;18.70;6.70;;;;;;;;;;5057695;28;20487;-72
2023/01/13 00:08:32;;;;;;;30.02;7.47;;;;;;;;;;5069904;28;20029;-73
2023/01/13 00:10:59;;;;;;;19.73;7.38;;;;;;;;;;5072733;28;20050;-73
2023/01/13 00:13:25;;;;;;;22.88;8.45;;;;;;;;;;5064324;28;20040;-72
2023/01/13 00:15:57;;;;;;;23.08;7.20;;;;;;;;;;5031304;28;20076;-72
2023/01/13 00:18:24;;;;;;;25.90;7.78;;;;;;;;;;5053843;28;20098;-72
2023/01/13 00:20:59;;;;;;;23.77;8.00;;;;;;;;;;5064235;28;20040;-72
2023/01/13 00:23:26;;;;;;;23.98;9.07;;;;;;;;;;5070263;28;20048;-72
2023/01/13 00:25:54;;;;;;;30.35;8.63;;;;;;;;;;5064510;28;20047;-72
2023/01/13 00:28:20;;;;;;;26.20;8.25;;;;;;;;;;5062403;28;20043;-72
2023/01/13 00:30:46;;;;;;;32.75;9.02;;;;;;;;;;5061214;28;20040;-73
2023/01/13 00:33:12;;;;;;;29.00;8.20;;;;;;;;;;5055940;28;20043;-72
2023/01/13 00:35:39;;;;;;;24.08;8.80;;;;;;;;;;5040929;28;20045;-72
2023/01/13 00:38:05;;;;;;;30.42;7.93;;;;;;;;;;5061926;28;20524;-72
2023/01/13 00:40:31;;;;;;;21.00;7.78;;;;;;;;;;5060631;28;20095;-72
2023/01/13 00:45:43;;;;;;;28.58;8.07;;;;;;;;;;5050911;28;20095;-72
2023/01/13 00:48:09;;;;;;;29.55;8.68;;;;;;;;;;5063204;28;20421;-72
2023/01/13 00:50:35;;;;;;;33.33;8.10;;;;;;;;;;5056000;28;20048;-72
2023/01/13 00:53:02;;;;;;;38.22;9.63;;;;;;;;;;5064050;28;20099;-72
2023/01/13 00:55:31;;;;;;;31.45;8.98;;;;;;;;;;5080445;28;20036;-73
2023/01/13 00:58:02;;;;;;;26.38;8.18;;;;;;;;;;5061938;28;20102;-72
2023/01/13 01:00:35;;;;;;;29.33;7.55;;;;;;;;;;5053234;28;20495;-73
2023/01/13 01:03:01;;;;;;;21.90;8.55;;;;;;;;;;5053233;28;20118;-73
2023/01/13 01:05:27;;;;;;;36.03;9.50;;;;;;;;;;5064649;28;20120;-72
2023/01/13 01:07:53;;;;;;;29.63;9.07;;;;;;;;;;5068992;28;20148;-72
2023/01/13 01:10:19;;;;;;;22.33;8.05;;;;;;;;;;5060368;28;20045;-73
2023/01/13 01:12:45;;;;;;;22.63;8.88;;;;;;;;;;5061264;28;20076;-73
2023/01/13 01:15:11;;;;;;;41.75;9.13;;;;;;;;;;5064933;28;20551;-72
2023/01/13 01:17:37;;;;;;;24.60;8.77;;;;;;;;;;5061586;28;20040;-73
2023/01/13 01:20:04;;;;;;;29.55;8.20;;;;;;;;;;5056313;28;20041;-71
2023/01/13 01:22:30;;;;;;;29.00;9.27;;;;;;;;;;5064555;28;20055;-72
2023/01/13 01:24:57;;;;;;;24.25;8.63;;;;;;;;;;5067623;28;20033;-72
2023/01/13 01:27:23;;;;;;;20.40;8.40;;;;;;;;;;5059604;28;20040;-72
2023/01/13 01:29:49;;;;;;;23.15;8.05;;;;;;;;;;5063635;28;20420;-72
2023/01/13 01:32:15;;;;;;;25.50;7.72;;;;;;;;;;5077824;28;20051;-72
2023/01/13 01:34:41;;;;;;;28.38;7.93;;;;;;;;;;5047871;28;20040;-72
2023/01/13 01:37:07;;;;;;;21.83;7.97;;;;;;;;;;5062784;28;20044;-72
2023/01/13 01:39:34;;;;;;;18.08;6.97;;;;;;;;;;5042215;28;20586;-72
2023/01/13 01:44:49;;;;;;;30.60;9.45;;;;;;;;;;5063493;28;20055;-72
2023/01/13 01:47:17;;;;;;;24.33;8.30;;;;;;;;;;5060417;28;20059;-72
2023/01/13 01:49:45;;;;;;;35.35;8.40;;;;;;;;;;5061093;28;20123;-72
2023/01/13 01:52:13;;;;;;;30.55;8.73;;;;;;;;;;5062403;28;20048;-73
2023/01/13 01:54:39;;;;;;;26.90;8.73;;;;;;;;;;5062262;28;20650;-72
2023/01/13 01:57:07;;;;;;;25.98;7.75;;;;;;;;;;5062386;28;20091;-73
2023/01/13 01:59:35;;;;;;;23.52;9.18;;;;;;;;;;5066251;28;20479;-73
2023/01/13 02:02:01;;;;;;;21.77;6.93;;;;;;;;;;5076614;28;20053;-72
2023/01/13 02:04:30;;;;;;;27.40;8.95;;;;;;;;;;5046345;28;20101;-72
2023/01/13 02:06:56;;;;;;;22.95;7.70;;;;;;;;;;5066785;28;20032;-72
2023/01/13 02:09:24;;;;;;;24.00;8.73;;;;;;;;;;5064658;28;20037;-72
2023/01/13 02:14:35;;;;;;;27.50;8.82;;;;;;;;;;5051427;28;20044;-72
2023/01/13 02:17:18;;;;;;;36.42;8.68;;;;;;;;;;5053351;28;20044;-72
2023/01/13 02:19:50;;;;;;;25.80;7.85;;;;;;;;;;5056631;28;20037;-73
2023/01/13 02:22:39;;;;;;;32.58;9.27;;;;;;;;;;5061158;28;20036;-72
2023/01/13 02:25:06;;;;;;;23.45;7.28;;;;;;;;;;5057313;28;20040;-73
2023/01/13 02:27:38;;;;;;;33.80;9.52;;;;;;;;;;5070425;28;20098;-72
2023/01/13 02:33:10;;;;;;;25.17;7.88;;;;;;;;;;5065094;28;20170;-73
2023/01/13 02:35:41;;;;;;;23.35;8.13;;;;;;;;;;5065292;28;20068;-73
2023/01/13 02:38:10;;;;;;;26.00;8.82;;;;;;;;;;5059027;28;20168;-73
2023/01/13 02:40:40;;;;;;;29.88;8.73;;;;;;;;;;5063100;28;20044;-72
2023/01/13 02:45:54;;;;;;;35.63;11.15;;;;;;;;;;5065624;28;20124;-73
2023/01/13 02:48:22;;;;;;;23.92;8.25;;;;;;;;;;5063767;28;20037;-73
2023/01/13 02:50:53;;;;;;;29.92;9.48;;;;;;;;;;5061313;28;20928;-73
2023/01/13 02:53:21;;;;;;;36.75;9.68;;;;;;;;;;5073888;28;20509;-73
2023/01/13 02:55:50;;;;;;;35.40;10.13;;;;;;;;;;5044830;28;20119;-72
2023/01/13 02:58:17;;;;;;;28.63;9.40;;;;;;;;;;5064536;28;20040;-72
2023/01/13 03:00:44;;;;;;;39.97;8.52;;;;;;;;;;5063269;28;20044;-72
2023/01/13 03:03:10;;;;;;;34.45;8.75;;;;;;;;;;5064612;28;20056;-71
2023/01/13 03:05:37;;;;;;;26.88;8.30;;;;;;;;;;5064613;28;20474;-72
2023/01/13 03:08:06;;;;;;;27.30;8.18;;;;;;;;;;5066722;28;20128;-72
2023/01/13 03:10:50;;;;;;;33.05;8.70;;;;;;;;;;5052735;28;20429;-72
2023/01/13 03:13:40;;;;;;;38.50;9.57;;;;;;;;;;5058522;28;20048;-72
2023/01/13 03:16:20;;;;;;;27.55;7.40;;;;;;;;;;5058740;28;20071;-72
2023/01/13 03:19:09;;;;;;;20.52;8.25;;;;;;;;;;5065301;28;20170;-72
2023/01/13 03:21:42;;;;;;;24.33;7.30;;;;;;;;;;5054880;28;20053;-73
2023/01/13 03:24:23;;;;;;;21.92;8.07;;;;;;;;;;5067588;28;20486;-73
2023/01/13 03:26:52;;;;;;;24.77;6.88;;;;;;;;;;5063048;28;20521;-72
2023/01/13 03:29:18;;;;;;;28.33;9.63;;;;;;;;;;5061550;28;20040;-72
2023/01/13 03:31:48;;;;;;;28.23;7.13;;;;;;;;;;5061435;28;20039;-72
2023/01/13 03:34:15;;;;;;;24.15;6.85;;;;;;;;;;5061170;28;20044;-72
2023/01/13 03:36:42;;;;;;;24.10;7.13;;;;;;;;;;5059067;28;20074;-72
2023/01/13 03:39:14;;;;;;;27.70;7.45;;;;;;;;;;5062558;28;20036;-72
2023/01/13 03:41:51;;;;;;;24.33;7.32;;;;;;;;;;5075071;28;20536;-72
2023/01/13 03:44:30;;;;;;;24.30;8.13;;;;;;;;;;5066359;28;20040;-72
2023/01/13 03:47:00;;;;;;;28.27;8.20;;;;;;;;;;5061446;28;20052;-72
2023/01/13 03:49:29;;;;;;;23.85;8.23;;;;;;;;;;5064528;28;20043;-73
2023/01/13 03:51:56;;;;;;;34.67;8.85;;;;;;;;;;5058062;28;20044;-72
2023/01/13 03:54:25;;;;;;;24.35;8.70;;;;;;;;;;5058968;28;20072;-73
2023/01/13 03:56:55;;;;;;;26.27;7.97;;;;;;;;;;5064214;28;20127;-72
2023/01/13 03:59:27;;;;;;;34.70;10.32;;;;;;;;;;5064195;28;20080;-73
2023/01/13 04:01:53;;;;;;;28.37;8.07;;;;;;;;;;5072127;28;20044;-72
2023/01/13 04:04:22;;;;;;;29.85;9.00;;;;;;;;;;5049758;28;20287;-72
2023/01/13 04:06:57;;;;;;;22.45;8.77;;;;;;;;;;5061216;28;20472;-72
2023/01/13 04:09:33;;;;;;;25.23;8.15;;;;;;;;;;5046293;28;20048;-72
2023/01/13 04:12:18;;;;;;;24.63;8.30;;;;;;;;;;5058759;28;20524;-72
2023/01/13 04:14:44;;;;;;;27.25;7.95;;;;;;;;;;5061511;28;20087;-73
2023/01/13 04:17:11;;;;;;;32.33;8.80;;;;;;;;;;5065571;28;20059;-73
2023/01/13 04:19:37;;;;;;;25.30;8.55;;;;;;;;;;5067677;28;20538;-72
2023/01/13 04:22:03;;;;;;;22.08;7.40;;;;;;;;;;5063950;28;20127;-71
2023/01/13 04:24:29;;;;;;;28.05;9.00;;;;;;;;;;5075185;28;20124;-73
2023/01/13 04:26:55;;;;;;;19.27;7.70;;;;;;;;;;5040113;28;20495;-73
2023/01/13 04:29:21;;;;;;;25.65;9.13;;;;;;;;;;5056262;28;20079;-72
2023/01/13 04:31:48;;;;;;;30.23;9.50;;;;;;;;;;5061150;28;20071;-73
2023/01/13 04:34:14;;;;;;;16.83;6.35;;;;;;;;;;5074097;28;20037;-72
2023/01/13 04:36:40;;;;;;;30.05;8.07;;;;;;;;;;5056043;28;20111;-73
2023/01/13 04:39:06;;;;;;;20.15;6.88;;;;;;;;;;5042613;28;20040;-72
2023/01/13 04:44:17;;;;;;;20.95;6.95;;;;;;;;;;5066734;28;20072;-72
2023/01/13 04:46:43;;;;;;;31.35;7.97;;;;;;;;;;5064750;28;20116;-72
2023/01/13 04:49:09;;;;;;;29.55;7.28;;;;;;;;;;5063715;28;20051;-73
2023/01/13 04:51:35;;;;;;;24.48;7.85;;;;;;;;;;5060035;28;20037;-73
2023/01/13 04:54:01;;;;;;;32.40;7.72;;;;;;;;;;5064036;28;20455;-72
2023/01/13 04:56:27;;;;;;;20.13;7.25;;;;;;;;;;5065769;28;20032;-74
2023/01/13 04:58:53;;;;;;;18.50;6.15;;;;;;;;;;5067268;28;20048;-72
2023/01/13 05:01:20;;;;;;;21.92;7.10;;;;;;;;;;5053526;28;20127;-73
2023/01/13 05:03:46;;;;;;;18.25;5.93;;;;;;;;;;5060261;28;20102;-72
2023/01/13 05:06:12;;;;;;;22.67;6.25;;;;;;;;;;5056913;28;20060;-73
2023/01/13 05:08:38;;;;;;;19.83;6.38;;;;;;;;;;5054525;28;20071;-72
2023/01/13 05:16:58;;;;;;;19.17;5.53;;;;;;;;;;5069200;28;20862;-73
2023/01/13 05:19:20;;;;;;;22.38;6.13;;;;;;;;;;5050717;28;20052;-72
2023/01/13 05:27:16;;;;;;;17.40;6.57;;;;;;;;;;5058711;28;20094;-73
2023/01/13 05:29:42;;;;;;;21.30;7.25;;;;;;;;;;5067253;28;20511;-72
2023/01/13 05:32:08;;;;;;;19.42;5.70;;;;;;;;;;5055406;28;20043;-72
2023/01/13 05:34:34;;;;;;;28.25;6.38;;;;;;;;;;5057234;28;20056;-72
2023/01/13 05:37:00;;;;;;;19.27;6.20;;;;;;;;;;5059726;28;20044;-72
2023/01/13 05:43:18;;;;;;;23.95;6.40;;;;;;;;;;5057591;28;20513;-73
2023/01/13 05:44:57;;;;;;;22.27;6.65;;;;;;;;;;5066747;28;20403;-72
2023/01/13 05:47:23;;;;;;;23.13;6.32;;;;;;;;;;5057265;28;20047;-72
2023/01/13 05:49:49;;;;;;;17.77;5.93;;;;;;;;;;5055060;28;20045;-73
2023/01/13 05:52:16;;;;;;;15.15;5.65;;;;;;;;;;5072979;28;20399;-73
2023/01/13 05:54:42;;;;;;;14.95;5.53;;;;;;;;;;5072556;28;20040;-73
2023/01/13 05:57:08;;;;;;;28.42;5.63;;;;;;;;;;5058370;28;20048;-72
2023/01/13 05:59:34;;;;;;;16.88;5.55;;;;;;;;;;5074613;28;20057;-72
2023/01/13 06:02:00;;;;;;;24.40;6.45;;;;;;;;;;5071380;28;20151;-72
2023/01/13 06:04:26;;;;;;;19.10;5.95;;;;;;;;;;5056585;28;20407;-73
2023/01/13 06:06:52;;;;;;;18.90;5.57;;;;;;;;;;5053792;28;20036;-73
2023/01/13 06:09:19;;;;;;;20.15;7.07;;;;;;;;;;5074197;28;20033;-72
2023/01/13 06:11:46;;;;;;;20.50;7.00;;;;;;;;;;5063816;28;20045;-72
2023/01/13 06:14:12;;;;;;;21.92;5.97;;;;;;;;;;5062602;28;20043;-73
2023/01/13 06:16:38;;;;;;;22.00;5.78;;;;;;;;;;5061493;28;20045;-72
2023/01/13 06:19:07;;;;;;;24.73;7.15;;;;;;;;;;5055588;28;20049;-72
2023/01/13 06:21:34;;;;;;;15.52;5.45;;;;;;;;;;5057374;28;20538;-72
2023/01/13 06:24:00;;;;;;;19.52;6.18;;;;;;;;;;5063226;28;20062;-73
2023/01/13 06:26:28;;;;;;;22.48;6.43;;;;;;;;;;5060740;28;20515;-72
2023/01/13 06:28:54;;;;;;;19.88;5.90;;;;;;;;;;5064053;28;20483;-73
2023/01/13 06:31:21;;;;;;;13.48;5.50;;;;;;;;;;5064569;28;20498;-72
2023/01/13 06:33:52;;;;;;;20.67;5.05;;;;;;;;;;5066514;28;20047;-72
2023/01/13 06:36:21;;;;;;;15.57;5.22;;;;;;;;;;5055817;28;20095;-73
2023/01/13 06:38:48;;;;;;;20.08;5.90;;;;;;;;;;5060123;28;20037;-73
2023/01/13 06:41:14;;;;;;;17.10;5.00;;;;;;;;;;5056044;28;20118;-72
2023/01/13 06:43:41;;;;;;;15.27;5.22;;;;;;;;;;5060837;28;20032;-72
2023/01/13 06:46:07;;;;;;;20.30;6.25;;;;;;;;;;5037209;28;20517;-72
2023/01/13 06:48:34;;;;;;;78.70;11.35;;;;;;;;;;5051344;28;20463;-73
2023/01/13 06:51:04;;;;;;;18.60;6.03;;;;;;;;;;5054260;28;20048;-72
2023/01/13 06:53:30;;;;;;;24.33;5.85;;;;;;;;;;5058625;28;20351;-73
2023/01/13 06:55:56;;;;;;;20.98;5.60;;;;;;;;;;5064820;28;20043;-73
2023/01/13 06:58:22;;;;;;;21.80;6.07;;;;;;;;;;5048545;28;20042;-73
2023/01/13 07:00:50;;;;;;;23.05;6.07;;;;;;;;;;5063310;28;20045;-72
2023/01/13 07:03:17;;;;;;;21.88;5.32;;;;;;;;;;5060659;28;20053;-73
2023/01/13 07:05:50;;;;;;;20.85;6.10;;;;;;;;;;5072615;28;20339;-72
2023/01/13 07:08:16;;;;;;;;;;;;;;;;;;5064645;28;20039;-73
2023/01/13 07:10:42;;;;;;;15.52;5.75;;;;;;;;;;5064219;28;19916;-72
2023/01/13 07:15:57;;;;;;;23.33;5.47;;;;;;;;;;5059635;28;20072;-72
2023/01/13 07:18:23;;;;;;;23.10;5.60;;;;;;;;;;5064451;28;20036;-72
2023/01/13 07:20:59;;;;;;;16.50;5.30;;;;;;;;;;5066043;28;20123;-71
2023/01/13 07:23:27;;;;;;;17.98;7.68;;;;;;;;;;5057514;28;20037;-73
2023/01/13 07:25:57;;;;;;;20.38;6.55;;;;;;;;;;5064351;28;20080;-72
2023/01/13 07:28:23;;;;;;;16.58;6.13;;;;;;;;;;5059241;28;20028;-72
2023/01/13 07:30:50;;;;;;;16.45;5.70;;;;;;;;;;5064246;28;20537;-71
2023/01/13 07:33:17;;;;;;;18.65;5.70;;;;;;;;;;5056611;28;20518;-73
2023/01/13 07:35:44;;;;;;;14.02;5.40;;;;;;;;;;5055219;28;20033;-73
2023/01/13 07:38:10;;;;;;;22.52;6.90;;;;;;;;;;5056711;28;20123;-73
2023/01/13 07:40:36;;;;;;;19.65;6.43;;;;;;;;;;5055178;28;20037;-72
2023/01/13 07:45:47;;;;;;;17.40;7.97;;;;;;;;;;5053348;28;20162;-72
2023/01/13 07:48:14;;;;;;;14.55;5.97;;;;;;;;;;5052777;28;20038;-72
2023/01/13 07:50:40;;;;;;;20.85;6.45;;;;;;;;;;5034787;28;20041;-71
2023/01/13 07:53:06;;;;;;;17.65;5.45;;;;;;;;;;5055773;28;20049;-72
2023/01/13 07:55:32;;;;;;;20.50;7.47;;;;;;;;;;5065395;28;20476;-72
2023/01/13 07:57:58;;;;;;;21.27;6.10;;;;;;;;;;5056226;28;20211;-72
2023/01/13 08:00:24;;;;;;;21.25;6.05;;;;;;;;;;5069123;28;20514;-72
2023/01/13 08:02:51;;;;;;;18.60;5.47;;;;;;;;;;5070729;28;20422;-72
2023/01/13 08:05:17;;;;;;;22.15;6.90;;;;;;;;;;5035964;28;20045;-72
2023/01/13 08:07:43;;;;;;;18.67;6.55;;;;;;;;;;5053567;28;20052;-73
2023/01/13 08:10:09;;;;;;;19.08;6.10;;;;;;;;;;5053585;28;20032;-72
2023/01/13 08:15:20;;;;;;;19.00;6.57;;;;;;;;;;5067749;28;20072;-72
2023/01/13 08:17:46;;;;;;;30.67;7.10;;;;;;;;;;5055953;28;20184;-72
2023/01/13 08:20:13;;;;;;;16.38;4.93;;;;;;;;;;5050078;28;20051;-73
2023/01/13 08:22:39;;;;;;;20.08;5.43;;;;;;;;;;5067638;28;20110;-72
2023/01/13 08:25:05;;;;;;;18.58;6.95;;;;;;;;;;5037225;28;20040;-72
2023/01/13 08:27:32;;;;;;;25.02;6.43;;;;;;;;;;5055791;28;20150;-72
2023/01/13 08:29:58;;;;;;;15.40;5.57;;;;;;;;;;5056357;28;20048;-72
2023/01/13 08:32:24;;;;;;;17.85;6.03;;;;;;;;;;5053915;28;20399;-72
2023/01/13 08:34:51;;;;;;;23.92;6.22;;;;;;;;;;5053445;28;20124;-73
2023/01/13 08:37:17;;;;;;;22.75;6.50;;;;;;;;;;5059852;28;20043;-72
2023/01/13 08:39:43;;;;;;;24.17;6.95;;;;;;;;;;5052452;28;20090;-72
2023/01/13 08:42:09;;;;;;;23.05;6.75;;;;;;;;;;5057170;28;20190;-72
2023/01/13 08:44:35;;;;;;;21.50;5.40;;;;;;;;;;5059804;28;20043;-73
2023/01/13 08:47:01;;;;;;;15.75;4.97;;;;;;;;;;5057287;28;20376;-73
2023/01/13 08:49:28;;;;;;;15.82;5.72;;;;;;;;;;5056663;28;20436;-72
2023/01/13 08:51:54;;;;;;;15.40;5.55;;;;;;;;;;5056762;28;20386;-73
2023/01/13 08:54:20;;;;;;;18.85;5.35;;;;;;;;;;5053967;28;20167;-73
2023/01/13 08:56:46;;;;;;;15.13;6.60;;;;;;;;;;5069662;28;20040;-73
2023/01/13 08:59:17;;;;;;;22.15;6.28;;;;;;;;;;5059828;28;20091;-73
2023/01/13 09:01:44;;;;;;;21.77;6.28;;;;;;;;;;5053221;28;20410;-72
2023/01/13 09:04:18;;;;;;;19.85;6.65;;;;;;;;;;5062923;28;20695;-73
2023/01/13 09:06:44;;;;;;;17.60;6.15;;;;;;;;;;5052609;28;20251;-72
2023/01/13 09:09:10;;;;;;;21.88;6.22;;;;;;;;;;5058974;28;20036;-73
2023/01/13 09:14:24;;;;;;;25.25;6.43;;;;;;;;;;5059769;28;20676;-73
2023/01/13 09:16:50;;;;;;;22.45;6.47;;;;;;;;;;5059163;28;20110;-72
2023/01/13 09:19:17;;;;;;;28.05;7.60;;;;;;;;;;5057857;28;20094;-73
2023/01/13 09:21:43;;;;;;;13.45;5.18;;;;;;;;;;5058950;28;20387;-73
2023/01/13 09:24:09;;;;;;;18.42;6.28;;;;;;;;;;5060339;28;20048;-73
2023/01/13 09:26:36;;;;;;;17.50;6.38;;;;;;;;;;5064170;28;20068;-73
2023/01/13 09:29:03;;;;;;;24.40;7.13;;;;;;;;;;5064563;28;20044;-72
2023/01/13 09:31:33;;;;;;;17.63;7.65;;;;;;;;;;5066313;28;20029;-72
2023/01/13 09:36:45;;;;;;;16.95;6.00;;;;;;;;;;5063076;28;20049;-73
2023/01/13 09:39:11;;;;;;;11.27;5.78;;;;;;;;;;5065423;28;20093;-73
2023/01/13 09:44:33;;;;;;;19.15;6.07;;;;;;;;;;5055906;28;20044;-73
2023/01/13 09:47:02;;;;;;;22.98;6.07;;;;;;;;;;5059611;28;20045;-72
2023/01/13 09:49:29;;;;;;;27.60;7.82;;;;;;;;;;5064475;28;20041;-73
2023/01/13 09:52:01;;;;;;;24.67;6.05;;;;;;;;;;5062674;28;20036;-72
2023/01/13 09:54:29;;;;;;;24.80;6.03;;;;;;;;;;5053957;28;20414;-73
2023/01/13 09:56:55;;;;;;;27.33;6.43;;;;;;;;;;5054683;28;20501;-72
2023/01/13 09:59:22;;;;;;;22.30;6.53;;;;;;;;;;5058992;28;20517;-72
2023/01/13 10:01:58;;;;;;;16.80;4.78;;;;;;;;;;5038589;28;20048;-72
2023/01/13 10:04:24;;;;;;;15.27;5.97;;;;;;;;;;5058431;28;20044;-72
2023/01/13 10:06:59;;;;;;;19.25;4.85;;;;;;;;;;5058416;28;20037;-72
2023/01/13 10:09:27;;;;;;;18.17;6.03;;;;;;;;;;5074670;28;20041;-73
2023/01/13 10:14:55;;;;;;;15.38;7.07;;;;;;;;;;5053664;28;20125;-72
2023/01/13 10:17:21;;;;;;;17.08;4.97;;;;;;;;;;5061253;28;20052;-72
2023/01/13 10:19:54;;;;;;;17.33;5.80;;;;;;;;;;5061748;28;20072;-73
2023/01/13 10:22:23;;;;;;;19.45;5.03;;;;;;;;;;5061602;28;20119;-73
2023/01/13 10:25:10;;;;;;;17.85;5.72;;;;;;;;;;5070401;28;20039;-73
2023/01/13 10:27:40;;;;;;;18.20;5.30;;;;;;;;;;5060382;28;20409;-73
2023/01/13 10:30:11;;;;;;;26.40;5.55;;;;;;;;;;5074266;28;20170;-72
2023/01/13 10:32:37;;;;;;;16.27;5.30;;;;;;;;;;5060866;28;20033;-72
2023/01/13 10:35:03;;;;;;;18.52;6.43;;;;;;;;;;5071421;28;20276;-72
2023/01/13 10:37:30;;;;;;;24.80;6.35;;;;;;;;;;5065691;28;20048;-72
2023/01/13 10:39:57;;;;;;;27.05;6.53;;;;;;;;;;5062451;28;20474;-72
2023/01/13 10:42:24;;;;;;;15.13;4.80;;;;;;;;;;5059634;28;20029;-72
2023/01/13 10:45:00;;;;;;;19.15;4.65;;;;;;;;;;5050902;28;20068;-73
2023/01/13 10:47:33;;;;;;;16.33;6.18;;;;;;;;;;5066473;28;20091;-71
2023/01/13 10:50:19;;;;;;;26.02;6.32;;;;;;;;;;5062879;28;20040;-73
2023/01/13 10:53:16;;;;;;;13.27;4.80;;;;;;;;;;5063283;28;20174;-72
2023/01/13 10:55:42;;;;;;;13.75;4.90;;;;;;;;;;5065206;28;20475;-73
2023/01/13 10:58:19;;;;;;;18.48;5.75;;;;;;;;;;5061477;28;20053;-73
2023/01/13 11:00:46;;;;;;;16.55;5.07;;;;;;;;;;5055751;28;20048;-73
2023/01/13 11:03:17;;;;;;;17.00;5.10;;;;;;;;;;5057743;28;20091;-73
2023/01/13 11:05:56;;;;;;;18.42;5.53;;;;;;;;;;5054880;28;20036;-72
2023/01/13 11:08:24;;;;;;;16.80;5.38;;;;;;;;;;5054284;28;20036;-73
2023/01/13 11:10:52;;;;;;;18.38;5.78;;;;;;;;;;5056695;28;20041;-72
2023/01/13 11:13:26;;;;;;;19.30;5.30;;;;;;;;;;5062720;28;20090;-72
2023/01/13 11:16:07;;;;;;;17.02;5.53;;;;;;;;;;5061328;28;20028;-73
2023/01/13 11:18:39;;;;;;;14.57;5.43;;;;;;;;;;5041588;28;20040;-72
2023/01/13 11:21:26;;;;;;;17.45;5.38;;;;;;;;;;5058770;28;20056;-72
2023/01/13 11:24:05;;;;;;;14.13;5.00;;;;;;;;;;5055544;28;20036;-72
2023/01/13 11:26:40;;;;;;;17.77;5.00;;;;;;;;;;5067184;28;20483;-73
2023/01/13 11:29:14;;;;;;;18.25;4.80;;;;;;;;;;5050858;28;20241;-73
2023/01/13 11:31:47;;;;;;;14.50;5.60;;;;;;;;;;5053621;28;20490;-72
2023/01/13 11:34:19;;;;;;;17.65;5.70;;;;;;;;;;5050268;28;20055;-73
2023/01/13 11:36:51;;;;;;;20.10;5.18;;;;;;;;;;5050505;28;20049;-73
2023/01/13 11:39:35;;;;;;;12.43;5.38;;;;;;;;;;5056713;28;20468;-72
2023/01/13 11:42:22;;;;;;;15.45;4.15;;;;;;;;;;5052680;28;20037;-73
2023/01/13 11:45:07;;;;;;;18.60;5.00;;;;;;;;;;5049800;28;20356;-73
2023/01/13 11:47:34;;;;;;;17.75;4.55;;;;;;;;;;5059590;28;20033;-73
2023/01/13 11:50:01;;;;;;;13.15;4.50;;;;;;;;;;5051804;28;20406;-72
2023/01/13 11:52:27;;;;;;;15.02;4.97;;;;;;;;;;5051677;28;20290;-72
2023/01/13 11:55:12;;;;;;;17.88;6.07;;;;;;;;;;5052400;28;20040;-72
2023/01/13 11:57:47;;;;;;;13.05;4.57;;;;;;;;;;5054470;28;20123;-73
2023/01/13 12:00:17;;;;;;;12.20;4.13;;;;;;;;;;5056538;28;20080;-73
2023/01/13 12:03:09;;;;;;;13.77;4.30;;;;;;;;;;5057454;28;20581;-72
2023/01/13 12:05:38;;;;;;;12.65;4.57;;;;;;;;;;5053969;28;20080;-72
2023/01/13 12:08:04;;;;;;;13.75;4.28;;;;;;;;;;5059381;28;20479;-72
2023/01/13 12:10:30;;;;;;;12.88;5.03;;;;;;;;;;5060925;28;20056;-73
2023/01/13 12:12:59;;;;;;;15.88;4.82;;;;;;;;;;5054872;28;20085;-72
2023/01/13 12:15:44;;;;;;;16.58;5.47;;;;;;;;;;5063401;28;20522;-72
2023/01/13 12:18:26;;;;;;;9.38;4.72;;;;;;;;;;5058418;28;20454;-73
2023/01/13 12:21:00;;;;;;;16.95;3.85;;;;;;;;;;5054906;28;20139;-72
2023/01/13 12:23:30;;;;;;;11.15;4.07;;;;;;;;;;5073091;28;20482;-73
2023/01/13 12:25:59;;;;;;;13.90;5.07;;;;;;;;;;5053525;28;20036;-73
2023/01/13 12:28:32;;;;;;;13.93;5.22;;;;;;;;;;5060565;28;20040;-74
2023/01/13 12:30:58;;;;;;;;;;;;;;;;;;5062189;28;20443;-72
2023/01/13 12:33:44;;;;;;;18.40;5.22;;;;;;;;;;5058638;28;19999;-73
2023/01/13 12:36:29;;;;;;;11.52;4.40;;;;;;;;;;5056138;28;20049;-73
2023/01/13 12:38:58;;;;;;;13.15;3.58;;;;;;;;;;5050954;28;20120;-73
2023/01/13 12:44:15;;;;;;;11.85;4.18;;;;;;;;;;5058148;28;20052;-73
2023/01/13 12:44:25;;;;;;;9.75;3.50;;;;;;;;;;5062691;28;20093;-73
2023/01/13 12:46:54;;;;;;;23.27;5.43;;;;;;;;;;5049056;28;20177;-71
2023/01/13 12:49:35;;;;;;;12.68;4.15;;;;;;;;;;5057333;28;20418;-73
2023/01/13 12:52:09;;;;;;;15.05;3.78;;;;;;;;;;5055775;28;20131;-73
2023/01/13 12:54:42;;;;;;;16.40;3.90;;;;;;;;;;5054281;28;20033;-72
2023/01/13 12:57:14;;;;;;;13.35;5.60;;;;;;;;;;5053243;28;20069;-73
2023/01/13 12:59:40;;;;;;;9.43;3.55;;;9.00;99.90;;;;;;5064842;28;20035;-73
2023/01/13 13:02:14;;;;;;;14.88;3.95;;;10.00;99.90;;;;;;5053474;28;20061;-73
2023/01/13 13:04:50;;;;;;;13.02;4.57;;;9.80;99.90;;;;;;5052014;28;20040;-73
2023/01/13 13:07:22;;;;;;;19.65;3.78;;;;;;;;;;5051553;28;20041;-73
2023/01/13 13:09:54;;;;;;;13.80;4.55;;;;;;;;;;5072250;28;20041;-73
2023/01/13 13:15:25;;;;;;;15.15;4.03;;;;;;;;;;5053961;28;20083;-73
2023/01/13 13:18:10;;;;;;;13.57;4.43;;;;;;;;;;5053851;28;20048;-73
2023/01/13 13:20:55;;;;;;;12.45;4.35;;;;;;;;;;5054794;28;20098;-72
2023/01/13 13:23:28;;;;;;;12.63;4.10;;;;;;;;;;5058330;28;20040;-72
2023/01/13 13:26:12;;;;;;;17.35;4.70;;;;;;;;;;5072915;28;20376;-73
2023/01/13 13:28:44;;;;;;;15.18;5.40;;;;;;;;;;5057002;28;20068;-71
2023/01/13 13:31:21;;;;;;;9.60;4.32;;;;;;;;;;5060376;28;20529;-73
2023/01/13 13:33:52;;;;;;;10.10;4.78;;;;;;;;;;5052881;28;20041;-72
2023/01/13 13:36:31;;;;;;;12.00;3.92;;;;;;;;;;5052986;28;20120;-73
2023/01/13 13:47:43;;;;;;;19.38;4.35;;;;;;;;;;5050277;28;20048;-73
2023/01/13 13:50:13;;;;;;;11.13;3.60;;;;;;;;;;5054199;28;20053;-72
2023/01/13 13:52:53;;;;;;;8.85;4.13;;;;;;;;;;5056110;28;20036;-73
2023/01/13 13:55:26;;;;;;;11.25;4.75;;;;;;;;;;5058340;28;20045;-73
2023/01/13 13:57:53;;;;;;;14.85;4.45;;;;;;;;;;5057726;28;20028;-73
2023/01/13 14:00:30;;;;;;;11.77;4.15;;;;;;;;;;5059207;28;20041;-73
2023/01/13 14:02:59;;;;;;;11.13;4.97;;;;;;;;;;5053693;28;20290;-73
2023/01/13 14:05:32;;;;;;;15.75;5.18;;;;;;;;;;5066687;28;20135;-73
2023/01/13 14:07:58;;;;;;;13.30;4.43;;;;;;;;;;5058158;28;20041;-73
2023/01/13 14:10:29;;;;;;;17.70;4.20;;;;;;;;;;5054209;28;20041;-72
2023/01/13 14:12:55;;;;;;;10.90;4.07;;;;;;;;;;5054130;28;20205;-73
2023/01/13 14:15:33;;;;;;;15.07;4.43;;;;;;;;;;5054776;28;20221;-73
2023/01/13 14:18:00;;;;;;;13.75;5.00;;;;;;;;;;5052148;28;20037;-73
2023/01/13 14:20:27;;;;;;;16.23;5.32;;;;;;;;;;5054006;28;20036;-73
2023/01/13 14:23:00;;;;;;;14.40;4.50;;;;;;;;;;5056555;28;20033;-73
2023/01/13 14:25:35;;;;;;;13.35;4.28;;;;;;;;;;5055463;28;20052;-73
2023/01/13 14:28:20;;;;;;;16.52;4.47;;;;;;;;;;5053113;28;20058;-73
2023/01/13 14:30:46;;;;;;;29.73;6.05;;;;;;;;;;5061543;28;20033;-71
2023/01/13 14:33:17;;;;;;;13.25;4.57;;;;;;;;;;5056777;28;20041;-72
2023/01/13 14:36:01;;;;;;;12.60;3.55;;;;;;;;;;5055893;28;20032;-72
2023/01/13 14:38:28;;;;;;;14.15;4.20;;;;;;;;;;5055803;28;20037;-71
2023/01/13 14:40:54;;;;;;;13.60;3.28;;;;;;;;;;5054530;28;20037;-71
2023/01/13 14:43:20;;;;;;;9.77;3.40;;;;;;;;;;5057136;28;20517;-72
2023/01/13 14:45:57;;;;;;;10.68;4.07;;;;;;;;;;5055327;28;20800;-72
2023/01/13 14:48:29;;;;;;;13.35;4.22;;;;;;;;;;5057664;28;20114;-71
2023/01/13 14:50:56;;;;;;;49.05;5.55;;;;;;;;;;5060378;28;20048;-72
2023/01/13 14:53:48;;;;;;;11.27;4.25;;;;;;;;;;5058475;28;20055;-72
2023/01/13 14:56:33;;;;;;;15.55;5.15;;;;;;;;;;5064115;28;20048;-72
2023/01/13 14:59:19;;;;;;;14.70;4.22;;;;;;;;;;5056938;28;20056;-72
2023/01/13 15:01:45;;;;;;;15.07;4.50;;;;;;;;;;5053994;28;20049;-70
2023/01/13 15:04:16;;;;;;;9.77;4.78;;;;;;;;;;5065813;28;20052;-71
2023/01/13 15:06:45;;;;;;;8.45;3.15;;;;;;;;;;5056719;28;20051;-72
2023/01/13 15:09:12;;;;;;;12.45;4.30;;;;;;;;;;5053225;28;20098;-73
2023/01/13 15:11:39;;;;;;;15.88;4.03;;;;;;;;;;5060502;28;20036;-72
2023/01/13 15:14:09;;;;;;;12.45;4.80;;;;;;;;;;5063411;28;20036;-72
2023/01/13 15:16:35;;;;;;;14.85;4.53;;;;;;;;;;5067629;28;20517;-72
2023/01/13 15:19:03;;;;;;;10.60;4.07;;;;;;;;;;5065188;28;20040;-72
2023/01/13 15:21:29;;;;;;;13.35;4.78;;;;;;;;;;5063844;28;20045;-71
2023/01/13 15:23:55;;;;;;;10.23;3.75;;;;;;;;;;5060241;28;20033;-72
2023/01/13 15:26:25;;;;;;;11.52;3.50;;;;;;;;;;5062768;28;20593;-72
2023/01/13 15:28:52;;;;;;;12.95;4.55;;;;;;;;;;5059183;28;20550;-72
2023/01/13 15:31:19;;;;;;;19.42;5.50;;;;;;;;;;5064032;28;20045;-71
2023/01/13 15:33:45;;;;;;;12.25;3.70;;;;;;;;;;5065820;28;20047;-72
2023/01/13 15:36:30;;;;;;;14.98;3.80;;;;;;;;;;5064611;28;20051;-71
2023/01/13 15:38:57;;;;;;;11.27;3.67;;;;;;;;;;5066021;28;20074;-72
2023/01/13 15:46:58;;;;;;;17.42;4.10;;;;;;;;;;5055756;28;20182;-71
2023/01/13 15:49:33;;;;;;;15.60;3.78;;;;;;;;;;5056634;28;20180;-71
2023/01/13 15:52:00;;;;;;;21.05;4.60;;;;;;;;;;5059287;28;20060;-71
2023/01/13 15:54:26;;;;;;;9.13;3.92;;;;;;;;;;5057530;28;20053;-73